createdAt,value
2022-09-09T00:01:57.637Z,1.00
2022-09-09T00:04:32.409Z,1.00
2022-09-09T00:07:17.901Z,1.10
2022-09-09T00:09:50.626Z,1.08
2022-09-09T00:12:23.997Z,1.30
2022-09-09T00:15:06.979Z,1.20
2022-09-09T00:17:34.686Z,1.05
2022-09-09T00:20:02.222Z,1.10
2022-09-09T00:22:32.325Z,1.30
2022-09-09T00:25:23.132Z,1.10
2022-09-09T00:27:52.249Z,1.10
2022-09-09T00:30:24.663Z,1.08
2022-09-09T00:32:59.003Z,1.20
2022-09-09T00:35:38.075Z,1.25
2022-09-09T00:38:15.188Z,1.00
2022-09-09T00:40:47.088Z,0.90
2022-09-09T00:43:15.075Z,1.30
2022-09-09T00:45:54.959Z,1.30
2022-09-09T00:48:23.551Z,1.10
2022-09-09T00:51:03.138Z,1.10
2022-09-09T00:53:43.251Z,1.00
2022-09-09T00:56:15.328Z,1.00
2022-09-09T00:58:44.653Z,1.05
2022-09-09T01:01:14.048Z,1.00
2022-09-09T01:03:48.813Z,1.10
2022-09-09T01:06:18.363Z,1.15
2022-09-09T01:08:51.804Z,1.27
2022-09-09T01:11:25.353Z,0.90
2022-09-09T01:14:13.597Z,1.30
2022-09-09T01:16:42.298Z,1.17
2022-09-09T01:19:18.073Z,1.05
2022-09-09T01:21:51.090Z,1.00
2022-09-09T01:24:48.956Z,1.20
2022-09-09T01:27:46.350Z,1.10
2022-09-09T01:30:15.590Z,1.10
2022-09-09T01:32:59.220Z,1.25
2022-09-09T01:35:31.259Z,1.00
2022-09-09T01:38:00.287Z,1.27
2022-09-09T01:40:28.328Z,1.10
2022-09-09T01:42:57.752Z,1.20
2022-09-09T01:45:25.719Z,1.00
2022-09-09T01:47:57.394Z,1.10
2022-09-09T01:50:45.159Z,1.00
2022-09-09T01:53:13.863Z,1.30
2022-09-09T01:55:43.508Z,0.90
2022-09-09T01:58:19.989Z,1.00
2022-09-09T02:00:58.627Z,1.00
2022-09-09T02:03:30.540Z,0.93
2022-09-09T02:06:28.942Z,0.95
2022-09-09T02:09:05.049Z,0.95
2022-09-09T02:11:34.145Z,0.97
2022-09-09T02:14:14.148Z,1.00
2022-09-09T02:16:51.282Z,1.02
2022-09-09T02:19:27.403Z,1.30
2022-09-09T02:22:04.288Z,1.10
2022-09-09T02:24:34.139Z,1.10
2022-09-09T02:27:22.609Z,1.33
2022-09-09T02:29:51.531Z,1.10
2022-09-09T02:32:25.226Z,1.30
2022-09-09T02:34:57.341Z,1.35
2022-09-09T02:37:29.398Z,1.45
2022-09-09T02:39:57.970Z,1.50
2022-09-09T02:42:26.221Z,1.40
2022-09-09T02:44:56.849Z,1.50
2022-09-09T02:47:29.495Z,1.48
2022-09-09T02:50:17.348Z,1.58
2022-09-09T02:53:08.605Z,1.75
2022-09-09T02:55:51.954Z,1.73
2022-09-09T02:58:22.543Z,1.30
2022-09-09T03:01:03.797Z,1.42
2022-09-09T03:03:32.758Z,1.20
2022-09-09T03:06:02.749Z,1.25
2022-09-09T03:08:30.266Z,1.40
2022-09-09T03:11:02.435Z,1.23
2022-09-09T03:13:33.159Z,1.50
2022-09-09T03:16:00.957Z,1.33
2022-09-09T03:18:31.323Z,1.30
2022-09-09T03:21:00.383Z,1.10
2022-09-09T03:23:28.986Z,1.30
2022-09-09T03:25:59.504Z,1.55
2022-09-09T03:28:36.537Z,1.20
2022-09-09T03:31:07.431Z,1.40
2022-09-09T03:33:40.207Z,1.30
2022-09-09T03:36:09.428Z,1.48
2022-09-09T03:38:37.321Z,1.20
2022-09-09T03:41:07.151Z,1.00
2022-09-09T03:43:35.283Z,1.23
2022-09-09T03:46:03.022Z,1.15
2022-09-09T03:48:31.286Z,1.30
2022-09-09T03:51:02.075Z,1.15
2022-09-09T03:53:31.440Z,1.33
2022-09-09T03:56:00.568Z,1.02
2022-09-09T03:58:29.589Z,1.08
2022-09-09T04:01:09.898Z,0.90
2022-09-09T04:03:38.780Z,0.98
2022-09-09T04:06:07.877Z,1.17
2022-09-09T04:08:36.687Z,1.05
2022-09-09T04:11:07.287Z,1.10
2022-09-09T04:13:38.459Z,1.10
2022-09-09T04:16:06.533Z,1.13
2022-09-09T04:18:36.141Z,1.15
2022-09-09T04:21:05.462Z,1.20
2022-09-09T04:23:35.113Z,1.40
2022-09-09T04:26:03.623Z,1.00
2022-09-09T04:28:35.432Z,1.20
2022-09-09T04:31:17.649Z,1.00
2022-09-09T04:33:47.251Z,1.30
2022-09-09T04:36:14.878Z,1.42
2022-09-09T04:38:45.349Z,1.30
2022-09-09T04:41:14.000Z,1.45
2022-09-09T04:43:44.445Z,1.20
2022-09-09T04:46:13.040Z,1.55
2022-09-09T04:48:40.996Z,1.15
2022-09-09T04:51:12.702Z,1.30
2022-09-09T04:53:41.144Z,1.17
2022-09-09T04:56:13.318Z,1.40
2022-09-09T04:58:48.083Z,1.45
2022-09-09T05:01:22.026Z,1.90
2022-09-09T05:03:52.826Z,1.58
2022-09-09T05:06:23.688Z,1.30
2022-09-09T05:08:56.293Z,1.40
2022-09-09T05:11:28.168Z,1.40
2022-09-09T05:14:07.533Z,1.20
2022-09-09T05:16:36.221Z,1.30
2022-09-09T05:19:04.177Z,1.70
2022-09-09T05:21:42.618Z,1.48
2022-09-09T05:24:10.217Z,1.38
2022-09-09T05:26:37.791Z,1.35
2022-09-09T05:29:05.868Z,1.30
2022-09-09T05:31:34.145Z,1.63
2022-09-09T05:34:05.814Z,1.70
2022-09-09T05:36:33.465Z,1.70
2022-09-09T05:39:02.227Z,2.33
2022-09-09T05:41:32.688Z,1.67
2022-09-09T05:44:02.582Z,1.73
2022-09-09T05:46:30.211Z,1.88
2022-09-09T05:48:59.196Z,1.60
2022-09-09T05:51:31.220Z,1.92
2022-09-09T05:54:00.782Z,1.88
2022-09-09T05:56:31.597Z,1.88
2022-09-09T05:59:01.837Z,1.67
2022-09-09T06:01:31.450Z,1.83
2022-09-09T06:04:00.277Z,1.63
2022-09-09T06:06:29.573Z,1.50
2022-09-09T06:08:59.403Z,1.65
2022-09-09T06:11:32.865Z,1.50
2022-09-09T06:14:01.897Z,1.35
2022-09-09T06:16:33.427Z,1.90
2022-09-09T06:19:02.056Z,1.15
2022-09-09T06:21:38.137Z,1.92
2022-09-09T06:24:08.456Z,1.30
2022-09-09T06:26:38.219Z,1.20
2022-09-09T06:29:06.109Z,1.63
2022-09-09T06:31:35.305Z,1.20
2022-09-09T06:34:08.521Z,0.93
2022-09-09T06:36:38.852Z,1.08
2022-09-09T06:39:12.139Z,1.20
2022-09-09T06:41:41.932Z,0.93
2022-09-09T06:44:16.380Z,0.90
2022-09-09T06:46:44.300Z,0.95
2022-09-09T06:49:12.136Z,1.20
2022-09-09T06:51:44.154Z,1.30
2022-09-09T06:54:13.927Z,0.90
2022-09-09T06:56:46.341Z,0.90
2022-09-09T06:59:21.847Z,0.82
2022-09-09T07:01:54.894Z,0.90
2022-09-09T07:04:23.726Z,0.93
2022-09-09T07:06:53.253Z,0.90
2022-09-09T07:09:24.750Z,1.00
2022-09-09T07:11:53.934Z,1.20
2022-09-09T07:14:23.582Z,1.02
2022-09-09T07:16:59.781Z,1.17
2022-09-09T07:19:28.628Z,1.30
2022-09-09T07:21:58.292Z,0.82
2022-09-09T07:24:26.483Z,1.27
2022-09-09T07:26:54.144Z,1.15
2022-09-09T07:29:22.130Z,1.13
2022-09-09T07:31:51.983Z,1.00
2022-09-09T07:34:24.864Z,1.08
2022-09-09T07:36:52.999Z,1.13
2022-09-09T07:39:21.408Z,1.20
2022-09-09T07:41:52.909Z,1.48
2022-09-09T07:44:25.630Z,0.95
2022-09-09T07:47:00.081Z,1.00
2022-09-09T07:49:34.867Z,1.27
2022-09-09T07:52:04.617Z,1.10
2022-09-09T07:54:33.123Z,1.00
2022-09-09T07:57:03.088Z,1.00
2022-09-09T07:59:31.906Z,1.15
2022-09-09T08:02:00.187Z,1.00
2022-09-09T08:04:30.561Z,1.05
2022-09-09T08:06:59.680Z,1.13
2022-09-09T08:09:33.314Z,1.48
2022-09-09T08:12:11.668Z,1.63
2022-09-09T08:14:40.986Z,1.17
2022-09-09T08:17:08.652Z,1.15
2022-09-09T08:19:36.845Z,1.02
2022-09-09T08:22:08.742Z,1.33
2022-09-09T08:24:37.905Z,1.20
2022-09-09T08:27:05.724Z,1.25
2022-09-09T08:29:33.312Z,1.30
2022-09-09T08:32:01.031Z,1.15
2022-09-09T08:34:31.359Z,1.50
2022-09-09T08:37:01.324Z,1.30
2022-09-09T08:39:34.979Z,1.52
2022-09-09T08:42:10.448Z,1.27
2022-09-09T08:44:48.243Z,1.30
2022-09-09T08:47:23.657Z,1.38
2022-09-09T08:49:52.019Z,1.30
2022-09-09T08:52:39.833Z,1.60
2022-09-09T08:55:17.199Z,1.70
2022-09-09T08:57:47.199Z,2.05
2022-09-09T09:00:15.015Z,1.90
2022-09-09T09:02:55.443Z,1.60
2022-09-09T09:05:34.792Z,2.08
2022-09-09T09:08:08.639Z,1.45
2022-09-09T09:10:55.047Z,1.58
2022-09-09T09:13:43.858Z,2.13
2022-09-09T09:16:34.598Z,1.40
2022-09-09T09:19:04.645Z,1.40
2022-09-09T09:21:44.745Z,1.50
2022-09-09T09:24:28.792Z,1.65
2022-09-09T09:26:58.013Z,1.30
2022-09-09T09:29:26.679Z,1.33
2022-09-09T09:31:55.717Z,1.30
2022-09-09T09:34:25.326Z,1.52
2022-09-09T09:36:55.298Z,0.95
2022-09-09T09:42:20.319Z,0.80
2022-09-09T09:44:52.402Z,0.95
2022-09-09T09:47:23.074Z,1.05
2022-09-09T09:50:00.964Z,0.80
2022-09-09T09:55:07.773Z,0.70
2022-09-09T09:57:36.334Z,0.88
2022-09-09T10:00:19.578Z,0.95
2022-09-09T10:02:54.249Z,0.85
2022-09-09T10:05:29.099Z,0.73
2022-09-09T10:08:10.360Z,0.82
2022-09-09T10:10:40.140Z,0.90
2022-09-09T10:13:20.335Z,1.30
2022-09-09T10:16:07.047Z,0.93
2022-09-09T10:18:40.847Z,1.02
2022-09-09T10:21:08.549Z,1.20
2022-09-09T10:23:54.868Z,1.30
2022-09-09T10:26:28.471Z,1.30
2022-09-09T10:29:03.978Z,1.10
2022-09-09T10:31:50.474Z,1.20
2022-09-09T10:34:36.704Z,1.23
2022-09-09T10:37:07.051Z,1.40
2022-09-09T10:39:43.005Z,1.27
2022-09-09T10:42:18.023Z,1.27
2022-09-09T10:44:51.464Z,1.20
2022-09-09T10:47:36.087Z,1.00
2022-09-09T10:50:12.298Z,1.42
2022-09-09T10:52:51.902Z,1.00
2022-09-09T10:55:20.910Z,1.10
2022-09-09T10:57:50.176Z,1.13
2022-09-09T11:00:22.047Z,1.00
2022-09-09T11:05:21.695Z,1.02
2022-09-09T11:07:53.968Z,0.80
2022-09-09T11:10:21.546Z,0.90
2022-09-09T11:12:50.927Z,0.80
2022-09-09T11:15:20.768Z,1.02
2022-09-09T11:17:55.519Z,0.70
2022-09-09T11:20:26.158Z,0.93
2022-09-09T11:23:11.783Z,1.00
2022-09-09T11:25:44.953Z,0.80
2022-09-09T11:28:18.674Z,0.70
2022-09-09T11:30:57.043Z,0.80
2022-09-09T11:33:38.563Z,0.50
2022-09-09T11:36:09.233Z,0.60
2022-09-09T11:38:43.287Z,0.70
2022-09-09T11:41:11.086Z,0.65
2022-09-09T11:43:47.177Z,0.80
2022-09-09T11:46:19.228Z,0.60
2022-09-09T11:48:47.689Z,0.63
2022-09-09T11:51:27.358Z,0.70
2022-09-09T11:53:56.306Z,0.70
2022-09-09T11:56:33.004Z,0.82
2022-09-09T11:59:06.392Z,0.70
2022-09-09T12:01:44.821Z,0.90
2022-09-09T12:04:32.711Z,0.55
2022-09-09T12:07:05.038Z,0.80
2022-09-09T12:09:32.537Z,0.60
2022-09-09T12:12:07.232Z,0.50
2022-09-09T12:14:46.660Z,0.80
2022-09-09T12:17:17.253Z,0.70
2022-09-09T12:19:44.780Z,0.70
2022-09-09T12:22:41.607Z,0.70
2022-09-09T12:25:12.620Z,0.60
2022-09-09T12:27:47.465Z,0.50
2022-09-09T12:30:17.057Z,0.70
2022-09-09T12:32:47.665Z,0.70
2022-09-09T12:35:22.005Z,0.65
2022-09-09T12:37:54.779Z,0.50
2022-09-09T12:40:29.609Z,0.90
2022-09-09T12:42:57.333Z,0.85
2022-09-09T12:45:26.825Z,0.70
2022-09-09T12:47:57.086Z,0.68
2022-09-09T12:50:29.361Z,0.85
2022-09-09T12:52:59.350Z,0.65
2022-09-09T12:55:30.988Z,0.70
2022-09-09T12:58:01.039Z,0.77
2022-09-09T13:00:29.124Z,0.90
2022-09-09T13:03:01.759Z,0.82
2022-09-09T13:05:36.283Z,0.70
2022-09-09T13:08:08.481Z,0.77
2022-09-09T13:10:52.784Z,0.63
2022-09-09T13:13:30.856Z,0.85
2022-09-09T13:15:59.555Z,0.73
2022-09-09T13:18:35.526Z,0.70
2022-09-09T13:21:03.606Z,0.75
2022-09-09T13:23:33.232Z,0.80
2022-09-09T13:26:02.332Z,0.70
2022-09-09T13:28:33.555Z,0.60
2022-09-09T13:31:05.933Z,0.75
2022-09-09T13:33:38.275Z,0.40
2022-09-09T13:36:10.222Z,0.80
2022-09-09T13:38:39.964Z,0.60
2022-09-09T13:41:11.067Z,0.73
2022-09-09T13:43:40.135Z,0.65
2022-09-09T13:46:25.182Z,0.80
2022-09-09T13:48:56.821Z,0.80
2022-09-09T13:51:34.575Z,0.50
2022-09-09T13:54:02.481Z,0.70
2022-09-09T13:56:30.057Z,0.40
2022-09-09T13:58:58.293Z,0.82
2022-09-09T14:01:29.460Z,0.40
2022-09-09T14:03:57.642Z,0.68
2022-09-09T14:06:25.351Z,0.70
2022-09-09T14:08:53.127Z,0.60
2022-09-09T14:11:22.288Z,0.70
2022-09-09T14:13:53.017Z,0.73
2022-09-09T14:16:22.589Z,0.85
2022-09-09T14:18:50.264Z,0.70
2022-09-09T14:21:17.788Z,0.47
2022-09-09T14:23:45.531Z,0.50
2022-09-09T14:26:14.201Z,0.50
2022-09-09T14:28:57.750Z,0.60
2022-09-09T14:31:26.405Z,0.43
2022-09-09T14:33:53.948Z,0.70
2022-09-09T14:36:21.532Z,0.93
2022-09-09T14:38:49.158Z,0.70
2022-09-09T14:41:18.264Z,0.50
2022-09-09T14:43:46.240Z,0.60
2022-09-09T14:46:15.210Z,0.70
2022-09-09T14:48:43.277Z,0.70
2022-09-09T14:51:13.561Z,0.57
2022-09-09T14:53:41.844Z,1.00
2022-09-09T14:56:11.003Z,0.70
2022-09-09T14:58:38.975Z,0.70
2022-09-09T15:01:11.672Z,0.85
2022-09-09T15:03:40.308Z,0.70
2022-09-09T15:06:14.807Z,0.73
2022-09-09T15:08:43.803Z,0.65
2022-09-09T15:11:12.066Z,0.68
2022-09-09T15:13:41.125Z,0.82
2022-09-09T15:16:09.628Z,0.80
2022-09-09T15:18:37.271Z,0.73
2022-09-09T15:21:05.953Z,0.80
2022-09-09T15:23:34.337Z,0.80
2022-09-09T15:26:02.096Z,0.60
2022-09-09T15:28:29.856Z,0.70
2022-09-09T15:30:57.782Z,0.68
2022-09-09T15:33:25.341Z,0.70
2022-09-09T15:35:52.884Z,1.05
2022-09-09T15:38:20.427Z,0.70
2022-09-09T15:40:55.309Z,0.57
2022-09-09T15:43:23.302Z,0.90
2022-09-09T15:45:53.523Z,1.67
2022-09-09T15:48:22.539Z,1.00
2022-09-09T15:51:05.188Z,0.82
2022-09-09T15:53:33.277Z,0.70
2022-09-09T15:56:01.228Z,0.82
2022-09-09T15:58:32.357Z,1.17
2022-09-09T16:01:05.207Z,0.82
2022-09-09T16:03:39.962Z,1.10
2022-09-09T16:06:10.939Z,0.95
2022-09-09T16:08:39.929Z,0.73
2022-09-09T16:11:12.245Z,0.90
2022-09-09T16:13:40.607Z,0.80
2022-09-09T16:16:08.508Z,0.88
2022-09-09T16:18:37.277Z,0.80
2022-09-09T16:21:05.998Z,1.00
2022-09-09T16:23:33.925Z,0.63
2022-09-09T16:26:05.613Z,0.75
2022-09-09T16:28:33.487Z,0.80
2022-09-09T16:31:05.376Z,1.05
2022-09-09T16:33:33.039Z,1.02
2022-09-09T16:36:06.373Z,0.90
2022-09-09T16:38:34.375Z,0.70
2022-09-09T16:41:02.043Z,1.05
2022-09-09T16:43:29.651Z,0.70
2022-09-09T16:45:57.279Z,0.90
2022-09-09T16:48:24.853Z,0.95
2022-09-09T16:50:52.415Z,1.35
2022-09-09T16:53:19.940Z,0.80
2022-09-09T16:55:47.860Z,0.70
2022-09-09T16:58:15.375Z,0.70
2022-09-09T17:00:43.356Z,0.93
2022-09-09T17:03:14.483Z,1.10
2022-09-09T17:05:42.443Z,0.75
2022-09-09T17:08:09.996Z,0.77
2022-09-09T17:10:42.502Z,0.93
2022-09-09T17:13:10.095Z,0.88
2022-09-09T17:15:44.933Z,0.80
2022-09-09T17:18:13.135Z,0.70
2022-09-09T17:20:46.938Z,0.75
2022-09-09T17:23:16.287Z,0.90
2022-09-09T17:25:46.045Z,0.70
2022-09-09T17:28:13.593Z,0.90
2022-09-09T17:30:41.188Z,0.70
2022-09-09T17:33:08.898Z,0.93
2022-09-09T17:35:36.439Z,0.80
2022-09-09T17:38:03.995Z,1.38
2022-09-09T17:40:31.549Z,1.08
2022-09-09T17:42:59.195Z,1.30
2022-09-09T17:45:26.754Z,1.00
2022-09-09T17:47:56.154Z,1.08
2022-09-09T17:50:23.919Z,0.70
2022-09-09T17:52:51.447Z,0.88
2022-09-09T17:55:19.070Z,1.25
2022-09-09T17:57:47.002Z,1.08
2022-09-09T18:00:14.688Z,0.98
2022-09-09T18:02:45.698Z,0.93
2022-09-09T18:05:13.309Z,0.98
2022-09-09T18:07:40.843Z,0.98
2022-09-09T18:10:08.543Z,1.15
2022-09-09T18:12:36.097Z,1.23
2022-09-09T18:15:04.415Z,1.10
2022-09-09T18:17:32.086Z,1.13
2022-09-09T18:19:59.635Z,1.25
2022-09-09T18:22:27.740Z,1.10
2022-09-09T18:24:56.566Z,1.02
2022-09-09T18:27:24.084Z,1.38
2022-09-09T18:29:51.708Z,1.27
2022-09-09T18:32:19.990Z,0.98
2022-09-09T18:34:49.921Z,1.30
2022-09-09T18:37:20.225Z,1.00
2022-09-09T18:39:47.880Z,1.10
2022-09-09T18:42:15.655Z,0.90
2022-09-09T18:44:43.171Z,0.80
2022-09-09T18:47:10.784Z,1.17
2022-09-09T18:49:38.435Z,1.00
2022-09-09T18:52:08.729Z,1.00
2022-09-09T18:54:41.240Z,1.38
2022-09-09T18:57:08.783Z,1.27
2022-09-09T18:59:36.365Z,1.05
2022-09-09T19:02:04.453Z,1.25
2022-09-09T19:04:33.077Z,1.23
2022-09-09T19:07:00.708Z,1.40
2022-09-09T19:09:31.000Z,1.27
2022-09-09T19:11:59.824Z,1.25
2022-09-09T19:14:27.984Z,1.25
2022-09-09T19:16:56.314Z,1.40
2022-09-09T19:19:25.540Z,0.85
2022-09-09T19:21:55.132Z,1.10
2022-09-09T19:24:23.777Z,1.45
2022-09-09T19:26:52.958Z,1.05
2022-09-09T19:29:22.157Z,1.02
2022-09-09T19:32:25.295Z,1.00
2022-09-09T19:34:38.327Z,1.10
2022-09-09T19:37:05.982Z,0.88
2022-09-09T19:39:34.402Z,1.10
2022-09-09T19:42:02.277Z,1.00
2022-09-09T19:44:29.905Z,1.13
2022-09-09T19:46:59.488Z,0.90
2022-09-09T19:49:27.026Z,1.02
2022-09-09T19:51:55.784Z,1.00
2022-09-09T19:54:23.435Z,1.17
2022-09-09T19:56:50.967Z,0.93
2022-09-09T19:59:18.566Z,0.82
2022-09-09T20:01:46.432Z,1.30
2022-09-09T20:04:14.651Z,0.90
2022-09-09T20:06:44.265Z,0.88
2022-09-09T20:09:14.565Z,0.82
2022-09-09T20:11:43.099Z,1.40
2022-09-09T20:14:11.579Z,1.05
2022-09-09T20:16:39.379Z,1.10
2022-09-09T20:19:08.162Z,1.15
2022-09-09T20:21:38.151Z,1.27
2022-09-09T20:24:09.587Z,1.02
2022-09-09T20:26:37.463Z,1.02
2022-09-09T20:29:06.361Z,1.17
2022-09-09T20:31:40.271Z,1.35
2022-09-09T20:34:09.871Z,1.38
2022-09-09T20:36:38.703Z,1.30
2022-09-09T20:39:08.121Z,1.10
2022-09-09T20:41:36.468Z,1.50
2022-09-09T20:44:05.888Z,1.20
2022-09-09T20:46:35.608Z,1.20
2022-09-09T20:49:04.588Z,1.27
2022-09-09T20:51:33.203Z,1.00
2022-09-09T20:54:03.705Z,1.33
2022-09-09T20:56:37.466Z,0.95
2022-09-09T20:59:05.691Z,1.13
2022-09-09T21:01:33.350Z,1.23
2022-09-09T21:04:00.908Z,1.25
2022-09-09T21:06:28.495Z,1.33
2022-09-09T21:08:56.016Z,1.40
2022-09-09T21:11:24.031Z,1.17
2022-09-09T21:13:51.555Z,1.38
2022-09-09T21:16:19.505Z,1.40
2022-09-09T21:18:47.668Z,1.52
2022-09-09T21:21:15.651Z,1.50
2022-09-09T21:23:43.168Z,1.60
2022-09-09T21:26:10.782Z,1.30
2022-09-09T21:28:38.437Z,1.25
2022-09-09T21:31:06.402Z,1.58
2022-09-09T21:33:34.624Z,1.10
2022-09-09T21:36:02.929Z,1.15
2022-09-09T21:38:31.047Z,1.08
2022-09-09T21:40:58.643Z,0.85
2022-09-09T21:43:26.183Z,0.90
2022-09-09T21:45:53.700Z,0.95
2022-09-09T21:48:21.378Z,1.20
2022-09-09T21:50:50.003Z,1.10
2022-09-09T21:53:18.960Z,1.00
2022-09-09T21:55:47.649Z,1.30
2022-09-09T21:58:16.069Z,1.13
2022-09-09T22:00:45.680Z,0.93
2022-09-09T22:03:14.387Z,0.90
2022-09-09T22:05:42.939Z,1.30
2022-09-09T22:08:11.668Z,1.10
2022-09-09T22:10:40.179Z,1.25
2022-09-09T22:13:07.798Z,1.10
2022-09-09T22:15:36.516Z,1.17
2022-09-09T22:18:04.894Z,1.15
2022-09-09T22:20:33.749Z,1.20
2022-09-09T22:23:02.165Z,1.10
2022-09-09T22:25:33.435Z,1.40
2022-09-09T22:28:01.584Z,1.20
2022-09-09T22:30:29.098Z,1.13
2022-09-09T22:32:57.295Z,1.15
2022-09-09T22:35:25.149Z,1.00
2022-09-09T22:37:52.822Z,1.00
2022-09-09T22:40:20.512Z,1.15
2022-09-09T22:42:52.547Z,0.88
2022-09-09T22:45:21.529Z,0.90
2022-09-09T22:47:49.075Z,0.85
2022-09-09T22:50:16.716Z,1.00
2022-09-09T22:52:44.238Z,1.40
2022-09-09T22:55:11.821Z,0.73
2022-09-09T22:57:39.342Z,0.93
2022-09-09T23:00:09.007Z,0.90
2022-09-09T23:02:40.955Z,0.80
2022-09-09T23:07:39.115Z,0.90
2022-09-09T23:10:06.908Z,0.60
2022-09-09T23:12:34.812Z,0.50
2022-09-09T23:15:02.969Z,0.80
2022-09-09T23:17:31.181Z,0.70
2022-09-09T23:19:58.723Z,0.70
2022-09-09T23:22:26.899Z,1.00
2022-09-09T23:24:55.082Z,0.70
2022-09-09T23:27:22.657Z,0.50
2022-09-09T23:29:50.786Z,0.60
2022-09-09T23:32:18.413Z,0.60
2022-09-09T23:34:45.957Z,0.60
2022-09-09T23:37:13.905Z,0.50
2022-09-09T23:39:42.071Z,0.73
2022-09-09T23:42:10.020Z,0.68
2022-09-09T23:44:40.803Z,0.60
2022-09-09T23:47:09.309Z,0.45
2022-09-09T23:49:40.667Z,0.40
2022-09-09T23:52:08.743Z,0.75
2022-09-09T23:54:36.396Z,0.68
2022-09-09T23:57:04.340Z,0.57
2022-09-09T23:59:32.238Z,0.47
